Time;durP1;ratioP1;P1;durP2;ratioP2;P2;SDS_P1;SDS_P2;PMS_P1;PMS_P2;Temp;Humidity;BMP_temperature;BMP_pressure;BME280_temperature;BME280_humidity;BME280_pressure;Samples;Min_cycle;Max_cycle;Signal;HPM_P1;HPM_P2
2023/09/17 00:00:07;;;;;;;6.55;5.13;;;19.50;72.00;;;;;;5114338;28;20019;-35
2023/09/17 00:02:34;;;;;;;6.70;5.43;;;19.50;71.90;;;;;;5114108;28;20032;-36
2023/09/17 00:04:59;;;;;;;5.93;5.32;;;19.50;71.60;;;;;;5114238;28;20020;-36
2023/09/17 00:07:25;;;;;;;6.80;5.00;;;19.50;71.50;;;;;;5114074;28;20034;-35
2023/09/17 00:09:50;;;;;;;6.13;5.05;;;19.50;71.40;;;;;;5114197;28;20020;-35
2023/09/17 00:12:16;;;;;;;6.38;5.03;;;19.60;71.30;;;;;;5114117;28;20038;-36
2023/09/17 00:14:42;;;;;;;7.18;5.82;;;19.50;71.20;;;;;;5114025;28;20024;-37
2023/09/17 00:17:08;;;;;;;6.78;5.07;;;19.50;71.10;;;;;;5113928;28;20098;-36
2023/09/17 00:19:33;;;;;;;5.25;4.75;;;19.50;71.00;;;;;;5114216;28;20059;-36
2023/09/17 00:21:59;;;;;;;6.10;5.28;;;19.50;71.00;;;;;;5113861;28;20076;-42
2023/09/17 00:24:25;;;;;;;7.35;4.90;;;19.50;70.80;;;;;;5113793;28;20106;-34
2023/09/17 00:26:50;;;;;;;5.47;4.57;;;19.60;70.80;;;;;;5113728;28;20149;-45
2023/09/17 00:29:16;;;;;;;6.03;4.72;;;19.60;70.70;;;;;;5113593;28;20038;-35
2023/09/17 00:31:43;;;;;;;6.10;4.35;;;19.60;70.60;;;;;;5113913;28;20035;-34
2023/09/17 00:34:08;;;;;;;5.20;4.70;;;19.60;70.40;;;;;;5113527;28;20047;-37
2023/09/17 00:36:34;;;;;;;5.95;5.35;;;19.60;70.20;;;;;;5113566;28;20059;-37
2023/09/17 00:38:59;;;;;;;4.40;3.97;;;19.60;69.90;;;;;;5113464;28;20023;-37
2023/09/17 00:41:26;;;;;;;4.43;4.03;;;19.60;70.60;;;;;;5113156;28;20015;-35
2023/09/17 00:43:51;;;;;;;4.72;4.20;;;19.60;69.90;;;;;;5113721;28;20104;-36
2023/09/17 00:46:19;;;;;;;4.55;4.07;;;19.50;69.80;;;;;;5113141;28;20027;-36
2023/09/17 00:48:45;;;;;;;5.55;3.88;;;19.50;69.90;;;;;;5113688;28;20370;-35
2023/09/17 00:51:10;;;;;;;4.68;4.18;;;19.50;70.10;;;;;;5113440;28;20030;-36
2023/09/17 00:53:36;;;;;;;5.13;4.30;;;19.50;70.40;;;;;;5112823;28;20015;-36
2023/09/17 00:56:02;;;;;;;6.13;4.78;;;19.40;70.70;;;;;;5113309;28;20044;-34
2023/09/17 00:58:33;;;;;;;5.18;4.68;;;19.40;71.10;;;;;;5112635;28;20015;-36
2023/09/17 01:00:58;;;;;;;5.32;4.40;;;19.30;71.60;;;;;;5112893;28;20028;-35
2023/09/17 01:03:27;;;;;;;5.65;4.75;;;19.20;72.00;;;;;;5112649;28;20076;-35
2023/09/17 01:05:54;;;;;;;5.70;4.85;;;19.10;72.30;;;;;;5113228;28;20387;-35
2023/09/17 01:08:22;;;;;;;4.90;4.40;;;19.10;72.50;;;;;;5112947;28;20038;-34
2023/09/17 01:10:49;;;;;;;5.97;4.75;;;19.00;72.70;;;;;;5112807;28;20016;-35
2023/09/17 01:13:15;;;;;;;5.30;4.80;;;19.00;72.80;;;;;;5112870;28;20376;-33
2023/09/17 01:15:41;;;;;;;5.53;4.90;;;19.00;72.90;;;;;;5112810;28;20055;-35
2023/09/17 01:18:10;;;;;;;6.22;5.50;;;18.90;72.80;;;;;;5112826;28;20019;-35
2023/09/17 01:20:46;;;;;;;5.63;5.03;;;18.90;72.90;;;;;;5112687;28;20145;-35
2023/09/17 01:23:30;;;;;;;7.03;5.25;;;18.90;72.90;;;;;;5112728;28;20027;-35
2023/09/17 01:26:15;;;;;;;7.05;5.85;;;18.90;72.90;;;;;;5112838;28;20076;-34
2023/09/17 01:28:41;;;;;;;6.60;5.60;;;18.80;72.80;;;;;;5112515;28;20047;-37
2023/09/17 01:31:09;;;;;;;7.30;6.60;;;18.80;73.10;;;;;;5112306;28;20072;-35
2023/09/17 01:33:35;;;;;;;6.53;5.57;;;18.80;73.10;;;;;;5093973;28;20020;-35
2023/09/17 01:36:25;;;;;;;7.10;6.40;;;18.70;73.20;;;;;;5112595;28;20381;-39
2023/09/17 01:38:57;;;;;;;7.72;5.28;;;18.60;73.60;;;;;;5100028;28;20066;-36
2023/09/17 01:41:25;;;;;;;7.43;5.93;;;18.50;73.80;;;;;;5112507;28;20076;-38
2023/09/17 01:43:51;;;;;;;7.22;6.55;;;18.40;74.10;;;;;;5112590;28;20444;-36
2023/09/17 01:46:16;;;;;;;7.28;6.45;;;18.30;74.70;;;;;;5112311;28;20026;-36
2023/09/17 01:48:42;;;;;;;7.47;6.60;;;18.20;75.00;;;;;;5112351;28;20035;-35
2023/09/17 01:51:10;;;;;;;8.82;6.70;;;18.10;75.40;;;;;;5112122;28;20016;-41
2023/09/17 01:53:36;;;;;;;9.75;6.95;;;18.00;75.70;;;;;;5112189;28;20026;-35
2023/09/17 01:56:02;;;;;;;7.68;6.93;;;18.00;76.10;;;;;;5112539;28;20526;-36
2023/09/17 01:58:27;;;;;;;7.03;6.32;;;17.90;76.30;;;;;;5112251;28;20107;-31
2023/09/17 02:00:54;;;;;;;7.78;6.65;;;17.80;76.40;;;;;;5112380;28;20020;-35
2023/09/17 02:03:19;;;;;;;7.68;6.88;;;17.80;76.70;;;;;;5112183;28;20094;-42
2023/09/17 02:05:45;;;;;;;7.15;6.50;;;17.70;76.80;;;;;;5111867;28;20120;-34
2023/09/17 02:08:11;;;;;;;8.25;7.15;;;17.60;76.90;;;;;;5111944;28;20016;-36
2023/09/17 02:10:36;;;;;;;6.90;6.28;;;17.60;77.10;;;;;;5111916;28;20031;-34
2023/09/17 02:13:02;;;;;;;7.47;6.35;;;17.60;77.20;;;;;;5111867;28;20034;-35
2023/09/17 02:15:28;;;;;;;9.07;6.88;;;17.50;77.20;;;;;;5112255;28;20026;-36
2023/09/17 02:17:54;;;;;;;7.15;6.45;;;17.50;77.40;;;;;;5111973;28;20436;-35
2023/09/17 02:20:20;;;;;;;7.03;6.15;;;17.50;77.50;;;;;;5111846;28;20024;-37
2023/09/17 02:22:45;;;;;;;8.95;6.78;;;17.50;77.50;;;;;;5112049;28;20022;-35
2023/09/17 02:25:11;;;;;;;7.57;6.10;;;17.50;77.50;;;;;;5111881;28;20491;-36
2023/09/17 02:27:38;;;;;;;7.22;6.53;;;17.50;77.50;;;;;;5111659;28;20040;-36
2023/09/17 02:30:04;;;;;;;8.05;6.70;;;17.50;77.50;;;;;;5093584;28;20024;-35
2023/09/17 02:32:30;;;;;;;7.22;6.50;;;17.50;77.50;;;;;;5111758;28;20081;-35
2023/09/17 02:34:57;;;;;;;6.95;6.18;;;17.60;77.60;;;;;;5112320;28;20016;-36
2023/09/17 02:37:23;;;;;;;7.50;6.55;;;17.60;77.60;;;;;;5112042;28;20441;-34
2023/09/17 02:39:49;;;;;;;7.10;6.40;;;17.60;78.20;;;;;;5111730;28;20022;-36
2023/09/17 02:42:15;;;;;;;6.63;5.88;;;17.60;77.60;;;;;;5112026;28;20485;-34
2023/09/17 02:44:40;;;;;;;7.38;6.65;;;17.60;77.80;;;;;;5111634;28;20024;-36
2023/09/17 02:47:06;;;;;;;7.18;6.47;;;17.60;77.60;;;;;;5111741;28;20429;-35
2023/09/17 02:49:31;;;;;;;6.88;6.22;;;17.60;77.60;;;;;;5112003;28;20027;-35
2023/09/17 02:51:57;;;;;;;8.80;6.80;;;17.60;77.60;;;;;;5111621;28;20489;-35
2023/09/17 02:54:23;;;;;;;6.30;5.70;;;17.60;77.50;;;;;;5111538;28;20027;-43
2023/09/17 02:56:49;;;;;;;6.10;5.50;;;17.60;77.40;;;;;;5111460;28;20028;-37
2023/09/17 02:59:15;;;;;;;6.75;5.60;;;17.60;77.40;;;;;;5111476;28;20023;-33
2023/09/17 03:01:41;;;;;;;8.07;6.05;;;17.50;77.40;;;;;;5111724;28;20110;-37
2023/09/17 03:04:07;;;;;;;6.28;5.63;;;17.50;77.50;;;;;;5093152;28;20554;-36
2023/09/17 03:06:36;;;;;;;7.18;5.90;;;17.50;77.80;;;;;;5111488;28;20119;-35
2023/09/17 03:09:04;;;;;;;6.88;5.90;;;17.40;78.00;;;;;;5111456;28;20054;-36
2023/09/17 03:11:30;;;;;;;6.47;5.78;;;17.40;78.30;;;;;;5111128;28;20024;-42
2023/09/17 03:13:55;;;;;;;6.63;6.00;;;17.30;78.40;;;;;;5111539;28;20024;-35
2023/09/17 03:16:21;;;;;;;7.00;5.88;;;17.30;78.60;;;;;;5111495;28;20680;-36
2023/09/17 03:18:46;;;;;;;6.97;5.60;;;17.30;78.70;;;;;;5093058;28;20160;-44
2023/09/17 03:21:12;;;;;;;7.22;5.20;;;17.20;78.80;;;;;;5111733;28;20023;-36
2023/09/17 03:23:38;;;;;;;7.18;5.60;;;17.20;78.90;;;;;;5114779;28;20465;-34
2023/09/17 03:26:05;;;;;;;6.30;5.50;;;17.30;79.10;;;;;;5115071;28;20111;-35
2023/09/17 03:28:31;;;;;;;6.70;6.10;;;17.20;79.10;;;;;;5114743;28;20558;-36
2023/09/17 03:30:58;;;;;;;8.73;6.03;;;17.20;79.30;;;;;;5114682;28;20020;-35
2023/09/17 03:33:23;;;;;;;6.00;5.40;;;17.20;79.50;;;;;;5114410;28;20023;-35
2023/09/17 03:35:49;;;;;;;6.80;6.10;;;17.10;79.70;;;;;;5114996;28;20032;-35
2023/09/17 03:38:15;;;;;;;6.93;6.25;;;17.00;79.90;;;;;;5114903;28;20411;-41
2023/09/17 03:40:40;;;;;;;7.82;6.28;;;16.90;80.20;;;;;;5114687;28;20366;-36
2023/09/17 03:43:06;;;;;;;7.43;5.68;;;17.00;80.40;;;;;;5114656;28;20031;-34
2023/09/17 03:45:32;;;;;;;8.25;6.30;;;17.00;80.50;;;;;;5114330;28;20106;-36
2023/09/17 03:47:58;;;;;;;7.45;6.05;;;17.00;80.60;;;;;;5114429;28;20465;-36
2023/09/17 03:50:24;;;;;;;7.55;6.30;;;17.00;80.60;;;;;;5114667;28;20426;-35
2023/09/17 03:52:54;;;;;;;6.57;5.93;;;17.00;80.70;;;;;;5114420;28;20023;-36
2023/09/17 03:55:20;;;;;;;6.88;6.18;;;17.00;80.70;;;;;;5114169;28;20546;-36
2023/09/17 03:57:46;;;;;;;6.72;5.93;;;17.00;80.70;;;;;;5114621;28;20019;-35
2023/09/17 04:00:14;;;;;;;6.63;5.95;;;17.10;80.70;;;;;;5114351;28;20030;-37
2023/09/17 04:02:41;;;;;;;6.65;5.85;;;17.10;80.80;;;;;;5114382;28;20024;-44
2023/09/17 04:05:10;;;;;;;6.97;6.13;;;17.10;80.80;;;;;;5114487;28;20027;-36
2023/09/17 04:07:36;;;;;;;6.45;5.80;;;17.10;80.80;;;;;;5114323;28;20472;-35
2023/09/17 04:10:05;;;;;;;7.38;6.18;;;17.20;81.00;;;;;;5114091;28;20031;-34
2023/09/17 04:12:32;;;;;;;7.15;6.45;;;17.20;81.00;;;;;;5114383;28;20023;-36
2023/09/17 04:14:58;;;;;;;8.13;7.13;;;17.20;81.60;;;;;;5113967;28;20347;-36
2023/09/17 04:17:24;;;;;;;8.98;6.07;;;17.20;81.30;;;;;;5095128;28;20038;-35
2023/09/17 04:19:50;;;;;;;8.30;6.68;;;17.20;81.30;;;;;;5113948;28;20023;-35
2023/09/17 04:22:16;;;;;;;7.63;6.35;;;17.20;81.50;;;;;;5113835;28;20161;-39
2023/09/17 04:24:42;;;;;;;7.85;6.80;;;17.20;81.60;;;;;;5113960;28;20028;-36
2023/09/17 04:27:08;;;;;;;7.97;6.90;;;17.10;81.80;;;;;;5113693;28;20111;-37
2023/09/17 04:29:35;;;;;;;9.25;7.28;;;17.10;82.00;;;;;;5113871;28;20480;-35
2023/09/17 04:32:01;;;;;;;8.20;7.40;;;17.10;82.30;;;;;;5113829;28;20028;-35
2023/09/17 04:34:26;;;;;;;8.93;7.75;;;17.10;82.50;;;;;;5112781;27;20032;-35
2023/09/17 04:36:52;;;;;;;9.90;7.53;;;17.00;82.70;;;;;;5113642;28;20492;-38
2023/09/17 04:39:17;;;;;;;9.20;7.38;;;17.10;82.90;;;;;;5113499;28;20018;-34
2023/09/17 04:41:44;;;;;;;8.75;7.35;;;17.00;83.00;;;;;;5113511;28;20046;-41
2023/09/17 04:44:10;;;;;;;7.32;6.57;;;17.00;83.20;;;;;;5113295;28;20030;-35
2023/09/17 04:46:45;;;;;;;10.18;8.13;;;17.00;83.30;;;;;;5113419;28;20103;-35
2023/09/17 04:49:11;;;;;;;9.15;7.57;;;17.00;83.50;;;;;;5113636;28;20454;-36
2023/09/17 04:51:36;;;;;;;8.10;6.82;;;17.00;83.70;;;;;;5113547;28;20023;-45
2023/09/17 04:54:03;;;;;;;8.88;7.47;;;17.00;83.90;;;;;;5113174;28;20031;-35
2023/09/17 04:56:30;;;;;;;8.60;7.80;;;17.00;84.00;;;;;;5113222;28;20015;-35
2023/09/17 04:59:00;;;;;;;9.57;8.40;;;16.90;84.30;;;;;;5113190;28;20389;-38
2023/09/17 05:01:27;;;;;;;9.75;8.43;;;16.90;84.40;;;;;;5112979;28;20027;-33
2023/09/17 05:03:53;;;;;;;10.50;8.07;;;16.90;84.50;;;;;;5113349;28;20035;-36
2023/09/17 05:06:18;;;;;;;9.70;8.70;;;16.90;84.70;;;;;;5112946;28;20056;-35
2023/09/17 05:08:44;;;;;;;9.20;8.18;;;16.90;84.80;;;;;;5113127;28;20024;-35
2023/09/17 05:11:10;;;;;;;10.10;8.35;;;16.90;85.00;;;;;;5112865;28;20022;-35
2023/09/17 05:13:35;;;;;;;9.98;7.45;;;16.90;85.00;;;;;;5112865;28;20393;-35
2023/09/17 05:16:03;;;;;;;10.70;8.15;;;16.90;85.10;;;;;;5094678;28;20028;-35
2023/09/17 05:18:28;;;;;;;11.15;9.18;;;16.90;85.20;;;;;;5112849;28;20538;-35
2023/09/17 05:20:54;;;;;;;10.90;8.65;;;16.90;85.30;;;;;;5113051;28;20020;-34
2023/09/17 05:23:20;;;;;;;10.90;9.70;;;16.90;85.50;;;;;;5112713;28;20573;-38
2023/09/17 05:25:46;;;;;;;11.88;10.05;;;16.90;85.70;;;;;;5112853;28;20019;-33
2023/09/17 05:28:12;;;;;;;8.13;7.07;;;16.90;85.80;;;;;;5112362;28;20374;-41
2023/09/17 05:30:38;;;;;;;10.82;9.35;;;16.90;85.80;;;;;;5112780;28;20432;-38
2023/09/17 05:33:04;;;;;;;9.50;8.35;;;16.90;85.80;;;;;;5094033;28;20469;-36
2023/09/17 05:35:30;;;;;;;10.27;9.18;;;16.90;85.90;;;;;;5112738;28;20473;-35
2023/09/17 05:37:56;;;;;;;10.85;9.35;;;16.90;86.10;;;;;;5094163;28;20064;-36
2023/09/17 05:40:22;;;;;;;10.93;9.13;;;16.90;86.20;;;;;;5112251;28;20027;-37
2023/09/17 05:42:47;;;;;;;9.02;8.13;;;16.90;86.40;;;;;;5112144;28;20043;-35
2023/09/17 05:45:13;;;;;;;9.55;7.85;;;16.80;86.60;;;;;;5111660;28;20557;-35
2023/09/17 05:47:40;;;;;;;9.27;8.15;;;16.90;86.60;;;;;;5112583;28;20027;-35
2023/09/17 05:50:08;;;;;;;9.95;8.02;;;16.90;86.70;;;;;;5112238;28;20020;-36
2023/09/17 05:52:33;;;;;;;9.30;8.38;;;16.90;86.90;;;;;;5111862;28;20054;-38
2023/09/17 05:55:00;;;;;;;9.73;8.18;;;16.90;86.90;;;;;;5112102;28;20035;-36
2023/09/17 05:57:26;;;;;;;9.70;8.73;;;16.90;86.90;;;;;;5111982;28;20017;-37
2023/09/17 05:59:52;;;;;;;9.55;8.10;;;16.90;87.20;;;;;;5112152;28;20031;-35
2023/09/17 06:02:17;;;;;;;8.75;7.82;;;16.90;87.20;;;;;;5111775;28;20503;-40
2023/09/17 06:04:43;;;;;;;11.13;8.57;;;16.90;87.20;;;;;;5112533;28;20604;-37
2023/09/17 06:07:09;;;;;;;10.07;8.38;;;16.90;87.30;;;;;;5111793;28;20030;-34
2023/09/17 06:09:35;;;;;;;10.75;8.32;;;16.90;87.40;;;;;;5112189;28;20022;-42
2023/09/17 06:12:00;;;;;;;10.05;8.40;;;16.90;87.50;;;;;;5111893;28;20028;-35
2023/09/17 06:14:26;;;;;;;10.02;7.72;;;16.90;87.60;;;;;;5111696;28;20070;-44
2023/09/17 06:16:52;;;;;;;8.75;7.72;;;16.90;87.60;;;;;;5112036;28;20055;-37
2023/09/17 06:19:17;;;;;;;9.57;8.57;;;16.90;87.70;;;;;;5093242;28;20122;-39
2023/09/17 06:21:43;;;;;;;8.68;7.68;;;16.90;87.70;;;;;;5111537;28;20106;-34
2023/09/17 06:24:09;;;;;;;9.82;7.13;;;16.90;87.80;;;;;;5111759;28;20027;-34
2023/09/17 06:26:35;;;;;;;7.50;6.45;;;16.90;87.90;;;;;;5111956;28;20023;-34
2023/09/17 06:29:01;;;;;;;7.05;6.35;;;16.90;87.80;;;;;;5111497;28;20046;-35
2023/09/17 06:31:27;;;;;;;8.48;6.68;;;17.00;87.90;;;;;;5111399;28;20396;-34
2023/09/17 06:33:53;;;;;;;8.27;7.20;;;16.90;87.70;;;;;;5111625;28;20062;-35
2023/09/17 06:36:19;;;;;;;7.28;6.50;;;16.90;87.70;;;;;;5111824;28;20381;-36
2023/09/17 06:38:46;;;;;;;6.97;6.35;;;16.90;87.80;;;;;;5111921;28;20243;-35
2023/09/17 06:41:12;;;;;;;7.82;6.70;;;16.90;87.70;;;;;;5111757;28;20536;-36
2023/09/17 06:43:39;;;;;;;7.05;6.22;;;16.90;87.70;;;;;;5111320;28;20076;-35
2023/09/17 06:46:04;;;;;;;7.90;6.38;;;16.90;87.80;;;;;;5111715;28;20040;-34
2023/09/17 06:48:30;;;;;;;7.10;6.18;;;16.90;87.70;;;;;;5111470;28;20028;-34
2023/09/17 06:50:57;;;;;;;7.25;6.50;;;16.90;87.70;;;;;;5111435;28;20052;-35
2023/09/17 06:53:23;;;;;;;8.93;6.38;;;17.00;87.70;;;;;;5111471;28;20027;-35
2023/09/17 06:55:49;;;;;;;7.75;5.95;;;17.00;87.60;;;;;;5111423;28;20053;-35
2023/09/17 06:58:16;;;;;;;8.25;6.10;;;17.00;87.60;;;;;;5114960;28;20099;-35
2023/09/17 07:00:43;;;;;;;6.70;6.00;;;17.00;87.50;;;;;;5115165;28;20051;-35
2023/09/17 07:03:08;;;;;;;6.32;5.53;;;17.00;87.50;;;;;;5115337;28;20406;-36
2023/09/17 07:05:34;;;;;;;7.18;6.00;;;17.10;87.40;;;;;;5115259;28;20115;-35
2023/09/17 07:07:59;;;;;;;5.85;5.22;;;17.10;87.40;;;;;;5115281;28;20534;-35
2023/09/17 07:10:25;;;;;;;7.07;5.55;;;17.20;87.30;;;;;;5115647;28;20122;-35
2023/09/17 07:12:51;;;;;;;8.27;5.53;;;17.20;87.10;;;;;;5114853;28;20460;-35
2023/09/17 07:15:18;;;;;;;7.00;5.57;;;17.20;87.00;;;;;;5096585;28;20396;-33
2023/09/17 07:17:44;;;;;;;6.28;5.60;;;17.30;86.90;;;;;;5115506;28;20463;-37
2023/09/17 07:20:13;;;;;;;5.82;5.20;;;17.30;86.90;;;;;;5114816;28;20015;-34
2023/09/17 07:22:42;;;;;;;7.95;6.07;;;17.40;87.00;;;;;;5114965;28;20346;-32
2023/09/17 07:25:07;;;;;;;5.95;5.35;;;17.40;86.80;;;;;;5114691;28;20024;-34
2023/09/17 07:27:33;;;;;;;6.97;5.65;;;17.40;86.70;;;;;;5114764;28;20104;-35
2023/09/17 07:29:59;;;;;;;5.60;5.10;;;17.40;86.70;;;;;;5114836;28;20530;-35
2023/09/17 07:32:28;;;;;;;6.60;5.38;;;17.40;86.60;;;;;;5114857;28;20039;-34
2023/09/17 07:34:55;;;;;;;6.22;5.63;;;17.50;86.60;;;;;;5115004;28;20027;-37
2023/09/17 07:37:22;;;;;;;6.35;5.40;;;17.40;86.50;;;;;;5114718;28;20048;-34
2023/09/17 07:39:56;;;;;;;6.38;5.75;;;17.40;86.50;;;;;;5115013;28;20019;-35
2023/09/17 07:42:22;;;;;;;7.40;5.95;;;17.40;86.50;;;;;;5114742;28;20435;-35
2023/09/17 07:44:48;;;;;;;5.95;5.32;;;17.50;86.60;;;;;;5114602;28;20020;-35
2023/09/17 07:47:13;;;;;;;6.00;5.32;;;17.50;86.50;;;;;;5114557;28;20027;-36
2023/09/17 07:49:39;;;;;;;6.97;6.13;;;17.50;86.50;;;;;;5114628;28;20024;-34
2023/09/17 07:52:05;;;;;;;6.28;5.63;;;17.50;86.30;;;;;;5114237;28;20018;-35
2023/09/17 07:54:36;;;;;;;6.35;5.75;;;17.40;86.30;;;;;;5114258;28;20055;-34
2023/09/17 07:57:04;;;;;;;6.72;6.05;;;17.40;86.40;;;;;;5114374;28;20381;-34
2023/09/17 07:59:30;;;;;;;6.57;5.90;;;17.40;86.50;;;;;;5114258;28;20015;-33
2023/09/17 08:01:56;;;;;;;6.97;6.20;;;17.50;86.60;;;;;;5114014;28;20381;-34
2023/09/17 08:04:22;;;;;;;7.28;5.93;;;17.40;86.40;;;;;;5114067;28;20024;-34
2023/09/17 08:06:49;;;;;;;6.82;6.13;;;17.50;86.40;;;;;;5114190;28;20035;-34
2023/09/17 08:09:15;;;;;;;7.85;6.53;;;17.60;86.30;;;;;;5114037;28;20059;-36
2023/09/17 08:11:40;;;;;;;7.00;6.10;;;17.60;86.20;;;;;;5114153;28;20103;-33
2023/09/17 08:14:06;;;;;;;7.32;6.25;;;17.60;86.10;;;;;;5114311;28;20098;-32
2023/09/17 08:16:32;;;;;;;7.65;6.35;;;17.70;86.10;;;;;;5114301;28;20031;-35
2023/09/17 08:18:57;;;;;;;7.63;6.40;;;17.70;86.00;;;;;;5113917;28;20031;-35
2023/09/17 08:21:23;;;;;;;7.90;6.80;;;17.70;85.90;;;;;;5113680;28;20468;-35
2023/09/17 08:23:49;;;;;;;10.30;7.63;;;17.70;85.80;;;;;;5114027;28;20500;-35
2023/09/17 08:26:15;;;;;;;8.02;7.22;;;17.80;85.90;;;;;;5113917;28;20023;-37
2023/09/17 08:28:44;;;;;;;8.38;7.45;;;17.80;85.90;;;;;;5113671;28;20043;-33
2023/09/17 08:31:09;;;;;;;9.10;7.35;;;17.80;85.70;;;;;;5113856;28;20511;-35
2023/09/17 08:33:35;;;;;;;9.57;7.60;;;17.80;85.70;;;;;;5113757;28;20118;-35
2023/09/17 08:36:02;;;;;;;8.68;7.80;;;17.80;85.80;;;;;;5113763;28;20031;-35
2023/09/17 08:38:29;;;;;;;9.70;8.40;;;17.80;85.80;;;;;;5113950;28;20423;-35
2023/09/17 08:40:57;;;;;;;9.50;8.38;;;17.80;85.80;;;;;;5113660;28;20015;-41
2023/09/17 08:43:24;;;;;;;9.10;7.53;;;17.80;85.80;;;;;;5113804;28;20038;-35
2023/09/17 08:45:50;;;;;;;9.10;8.20;;;17.80;85.80;;;;;;5113100;28;20094;-37
2023/09/17 08:48:17;;;;;;;9.05;8.10;;;17.70;85.90;;;;;;5113688;28;20354;-37
2023/09/17 08:50:48;;;;;;;9.32;8.38;;;17.70;85.90;;;;;;5113763;28;20396;-40
2023/09/17 08:53:18;;;;;;;11.93;9.50;;;17.70;86.00;;;;;;5113051;28;20031;-36
2023/09/17 08:55:45;;;;;;;10.30;9.25;;;17.70;86.00;;;;;;5113512;28;20024;-36
2023/09/17 08:58:21;;;;;;;11.45;10.18;;;17.70;86.00;;;;;;5113224;28;20033;-35
2023/09/17 09:00:50;;;;;;;10.95;9.43;;;17.70;86.10;;;;;;5113402;28;20024;-36
2023/09/17 09:03:17;;;;;;;11.35;9.88;;;17.70;86.10;;;;;;5113150;28;20611;-36
2023/09/17 09:05:46;;;;;;;10.75;9.60;;;17.70;86.20;;;;;;5113349;28;20032;-35
2023/09/17 09:08:13;;;;;;;11.80;9.77;;;17.70;86.30;;;;;;5112786;28;20030;-34
2023/09/17 09:10:39;;;;;;;10.50;9.40;;;17.80;86.40;;;;;;5112944;28;20040;-34
2023/09/17 09:13:04;;;;;;;12.07;10.27;;;17.80;86.30;;;;;;5112615;28;20441;-48
2023/09/17 09:15:30;;;;;;;11.93;9.38;;;17.90;86.40;;;;;;5112839;28;20062;-34
2023/09/17 09:17:56;;;;;;;12.32;10.68;;;18.00;86.30;;;;;;5094715;28;20024;-35
2023/09/17 09:20:22;;;;;;;13.55;10.32;;;18.10;86.20;;;;;;5112362;28;20020;-39
2023/09/17 09:22:48;;;;;;;11.13;9.98;;;18.10;86.00;;;;;;5112559;28;20059;-34
2023/09/17 09:25:16;;;;;;;13.48;11.05;;;18.20;86.00;;;;;;5112853;28;20020;-35
2023/09/17 09:27:42;;;;;;;12.75;10.88;;;18.20;86.00;;;;;;5112475;28;20048;-35
2023/09/17 09:30:10;;;;;;;13.98;11.90;;;18.20;86.10;;;;;;5112594;28;20099;-33
2023/09/17 09:32:38;;;;;;;11.98;10.65;;;18.30;86.20;;;;;;5112701;28;20016;-32
2023/09/17 09:35:05;;;;;;;12.88;11.45;;;18.30;86.20;;;;;;5112300;28;20366;-34
2023/09/17 09:37:31;;;;;;;12.90;10.98;;;18.30;86.20;;;;;;5111637;28;20579;-31
2023/09/17 09:39:58;;;;;;;12.52;11.00;;;18.30;86.10;;;;;;5111312;28;20091;-33
2023/09/17 09:42:25;;;;;;;11.75;10.45;;;18.40;86.20;;;;;;5111431;28;20019;-34
2023/09/17 09:44:51;;;;;;;12.07;10.70;;;18.40;86.10;;;;;;5112226;28;20104;-34
2023/09/17 09:47:20;;;;;;;12.23;10.40;;;18.50;86.10;;;;;;5112509;28;20033;-34
2023/09/17 09:49:46;;;;;;;11.90;10.70;;;18.50;85.90;;;;;;5112787;28;20113;-36
2023/09/17 09:52:13;;;;;;;12.93;10.63;;;18.60;85.80;;;;;;5112100;28;20109;-34
2023/09/17 09:54:43;;;;;;;11.00;9.88;;;18.70;85.80;;;;;;5112611;28;20062;-34
2023/09/17 09:57:13;;;;;;;12.85;11.30;;;18.70;85.70;;;;;;5112143;28;20035;-33
2023/09/17 09:59:44;;;;;;;12.40;11.10;;;18.70;85.70;;;;;;5107365;28;20081;-35
2023/09/17 10:02:12;;;;;;;13.02;10.48;;;18.70;85.60;;;;;;5111897;28;20489;-35
2023/09/17 10:04:38;;;;;;;11.68;10.48;;;18.70;85.60;;;;;;5112379;28;20022;-46
2023/09/17 10:07:05;;;;;;;12.65;11.35;;;18.80;85.60;;;;;;5112273;28;20536;-35
2023/09/17 10:09:30;;;;;;;12.82;11.43;;;18.80;85.50;;;;;;5112079;28;20042;-34
2023/09/17 10:11:58;;;;;;;13.07;11.52;;;18.90;86.10;;;;;;5111949;28;20426;-36
2023/09/17 10:14:25;;;;;;;13.80;11.88;;;19.00;85.60;;;;;;5112151;28;20023;-35
2023/09/17 10:16:53;;;;;;;13.68;11.57;;;19.00;85.50;;;;;;5111936;28;20027;-34
2023/09/17 10:19:21;;;;;;;13.27;11.13;;;19.00;85.40;;;;;;5112073;28;20026;-34
2023/09/17 10:21:48;;;;;;;14.38;11.48;;;19.10;85.40;;;;;;5093596;28;20063;-34
2023/09/17 10:24:15;;;;;;;16.60;12.00;;;19.20;85.30;;;;;;5111939;28;20034;-34
2023/09/17 10:26:42;;;;;;;14.23;11.32;;;19.30;85.20;;;;;;5111913;28;20024;-35
2023/09/17 10:29:12;;;;;;;14.10;12.02;;;19.30;85.10;;;;;;5112121;28;20023;-35
2023/09/17 10:31:40;;;;;;;12.38;11.07;;;19.40;85.10;;;;;;5114619;28;20169;-35
2023/09/17 10:34:06;;;;;;;14.48;11.90;;;19.50;84.90;;;;;;5115936;28;20500;-37
2023/09/17 10:36:33;;;;;;;13.20;10.98;;;19.60;84.90;;;;;;5097024;28;20510;-35
2023/09/17 10:38:59;;;;;;;12.65;11.25;;;19.70;84.70;;;;;;5116259;28;20023;-35
2023/09/17 10:41:28;;;;;;;15.23;12.48;;;19.80;84.70;;;;;;5116135;28;20135;-35
2023/09/17 10:43:57;;;;;;;16.05;12.02;;;19.90;84.70;;;;;;5116118;28;20508;-35
2023/09/17 10:46:23;;;;;;;15.25;12.52;;;20.00;84.60;;;;;;5115664;28;20035;-34
2023/09/17 10:48:50;;;;;;;14.63;12.90;;;20.00;84.40;;;;;;5116069;28;20027;-34
2023/09/17 10:51:19;;;;;;;14.65;12.82;;;20.10;84.40;;;;;;5097558;28;20329;-33
2023/09/17 10:53:45;;;;;;;17.02;12.95;;;20.20;84.30;;;;;;5115459;28;20073;-34
2023/09/17 10:56:13;;;;;;;17.88;12.73;;;20.20;84.20;;;;;;5115708;28;20023;-34
2023/09/17 10:58:52;;;;;;;17.38;12.82;;;20.20;84.30;;;;;;5115493;28;20032;-34
2023/09/17 11:01:21;;;;;;;16.60;13.52;;;20.20;84.40;;;;;;5115633;28;20019;-34
2023/09/17 11:03:52;;;;;;;16.08;12.75;;;20.20;84.30;;;;;;5115437;28;20069;-35
2023/09/17 11:06:23;;;;;;;15.43;12.82;;;20.20;84.40;;;;;;5115757;28;20139;-32
2023/09/17 11:08:56;;;;;;;16.80;13.90;;;20.20;84.40;;;;;;5115501;28;20477;-35
2023/09/17 11:11:29;;;;;;;17.50;14.52;;;20.20;84.50;;;;;;5114919;28;20072;-32
2023/09/17 11:13:55;;;;;;;17.65;14.10;;;20.10;84.50;;;;;;5115180;28;20020;-34
2023/09/17 11:16:24;;;;;;;15.95;13.70;;;20.10;84.60;;;;;;5115059;28;20100;-34
2023/09/17 11:19:12;;;;;;;16.52;13.65;;;20.10;84.70;;;;;;5115232;28;20024;-33
2023/09/17 11:21:40;;;;;;;17.02;13.70;;;20.10;84.80;;;;;;5115156;28;20043;-34
2023/09/17 11:24:08;;;;;;;16.63;13.57;;;20.20;84.60;;;;;;5114811;28;20027;-35
2023/09/17 11:26:35;;;;;;;18.17;14.20;;;20.30;84.50;;;;;;5115185;28;20122;-35
2023/09/17 11:29:05;;;;;;;17.92;13.85;;;20.50;84.50;;;;;;5115494;28;20048;-34
2023/09/17 11:31:34;;;;;;;17.38;13.93;;;20.50;84.40;;;;;;5115182;28;20030;-34
2023/09/17 11:34:01;;;;;;;15.23;12.93;;;20.60;84.40;;;;;;5115310;28;20050;-35
2023/09/17 11:36:27;;;;;;;19.25;14.23;;;20.70;84.20;;;;;;5115344;28;20107;-35
2023/09/17 11:38:53;;;;;;;18.02;14.65;;;20.80;84.10;;;;;;5115013;28;20549;-37
2023/09/17 11:41:27;;;;;;;18.42;13.70;;;20.90;84.00;;;;;;5114911;28;20500;-34
2023/09/17 11:43:53;;;;;;;17.83;14.45;;;21.00;84.00;;;;;;5114168;28;20019;-34
2023/09/17 11:46:20;;;;;;;17.20;13.98;;;21.10;83.90;;;;;;5114686;28;20495;-35
2023/09/17 11:48:45;;;;;;;19.33;14.48;;;21.10;83.70;;;;;;5114749;28;20024;-36
2023/09/17 11:51:20;;;;;;;19.65;14.93;;;21.30;83.60;;;;;;5114720;28;20460;-34
2023/09/17 11:53:53;;;;;;;18.83;14.60;;;21.30;83.60;;;;;;5114650;28;20032;-35
2023/09/17 11:56:19;;;;;;;17.65;14.02;;;21.30;83.60;;;;;;5114806;28;20032;-34
2023/09/17 11:58:46;;;;;;;18.52;14.80;;;21.30;83.60;;;;;;5096247;28;20472;-35
2023/09/17 12:01:13;;;;;;;17.95;14.23;;;21.30;83.80;;;;;;5114385;28;20020;-34
2023/09/17 12:03:39;;;;;;;19.20;14.43;;;21.20;83.80;;;;;;5114372;28;20024;-35
2023/09/17 12:06:04;;;;;;;17.13;13.93;;;21.20;83.90;;;;;;5114695;28;20469;-35
2023/09/17 12:08:31;;;;;;;16.48;14.35;;;21.20;83.90;;;;;;5114459;28;20043;-33
2023/09/17 12:11:02;;;;;;;21.23;16.05;;;21.20;84.00;;;;;;5114209;28;20019;-34
2023/09/17 12:13:30;;;;;;;20.00;15.13;;;21.10;84.10;;;;;;5114282;28;20498;-34
2023/09/17 12:15:56;;;;;;;18.05;14.85;;;21.10;84.20;;;;;;5114554;28;20425;-37
2023/09/17 12:18:24;;;;;;;19.40;14.88;;;21.10;84.30;;;;;;5114253;28;20027;-35
2023/09/17 12:20:59;;;;;;;20.10;14.98;;;21.10;84.40;;;;;;5114191;28;20024;-35
2023/09/17 12:23:51;;;;;;;18.23;15.52;;;21.10;84.50;;;;;;5113709;28;20039;-36
2023/09/17 12:26:31;;;;;;;17.47;14.50;;;21.00;84.60;;;;;;5114215;28;20488;-35
2023/09/17 12:28:57;;;;;;;18.80;15.43;;;21.00;84.70;;;;;;5113857;28;20320;-35
2023/09/17 12:31:22;;;;;;;20.80;16.52;;;20.90;84.80;;;;;;5113638;28;20039;-34
2023/09/17 12:33:48;;;;;;;18.42;15.43;;;20.90;85.00;;;;;;5114076;28;20034;-33
2023/09/17 12:36:14;;;;;;;20.75;15.98;;;20.90;85.10;;;;;;5113669;28;20023;-37
2023/09/17 12:38:39;;;;;;;18.70;15.80;;;20.90;85.20;;;;;;5114007;28;20369;-38